sensor_id;sensor_type;location;lat;lon;timestamp;P1;durP1;ratioP1;P2;durP2;ratioP2
27999;SDS011;15328;50.860;10.562;2023-11-19T00:02:12;1.13;;;0.90;;
27999;SDS011;15328;50.860;10.562;2023-11-19T00:07:12;0.80;;;0.80;;
27999;SDS011;15328;50.860;10.562;2023-11-19T00:12:14;0.93;;;0.70;;
27999;SDS011;15328;50.860;10.562;2023-11-19T00:17:14;0.60;;;0.57;;
27999;SDS011;15328;50.860;10.562;2023-11-19T00:22:14;0.70;;;0.52;;
27999;SDS011;15328;50.860;10.562;2023-11-19T00:27:15;0.67;;;0.50;;
27999;SDS011;15328;50.860;10.562;2023-11-19T00:32:15;0.65;;;0.50;;
27999;SDS011;15328;50.860;10.562;2023-11-19T00:37:16;0.47;;;0.40;;
27999;SDS011;15328;50.860;10.562;2023-11-19T00:42:17;0.50;;;0.50;;
27999;SDS011;15328;50.860;10.562;2023-11-19T00:47:17;0.52;;;0.47;;
27999;SDS011;15328;50.860;10.562;2023-11-19T00:52:21;0.50;;;0.50;;
27999;SDS011;15328;50.860;10.562;2023-11-19T00:57:22;0.80;;;0.50;;
27999;SDS011;15328;50.860;10.562;2023-11-19T01:02:22;0.50;;;0.50;;
27999;SDS011;15328;50.860;10.562;2023-11-19T01:07:22;0.40;;;0.40;;
27999;SDS011;15328;50.860;10.562;2023-11-19T01:12:24;0.50;;;0.40;;
27999;SDS011;15328;50.860;10.562;2023-11-19T01:17:24;0.63;;;0.43;;
27999;SDS011;15328;50.860;10.562;2023-11-19T01:22:25;0.50;;;0.50;;
27999;SDS011;15328;50.860;10.562;2023-11-19T01:27:26;0.40;;;0.40;;
27999;SDS011;15328;50.860;10.562;2023-11-19T01:32:26;0.25;;;0.20;;
27999;SDS011;15328;50.860;10.562;2023-11-19T01:37:27;0.30;;;0.30;;
27999;SDS011;15328;50.860;10.562;2023-11-19T01:42:27;0.30;;;0.30;;
27999;SDS011;15328;50.860;10.562;2023-11-19T01:47:28;1.05;;;0.50;;
27999;SDS011;15328;50.860;10.562;2023-11-19T01:52:30;0.30;;;0.28;;
27999;SDS011;15328;50.860;10.562;2023-11-19T01:57:30;0.28;;;0.25;;
27999;SDS011;15328;50.860;10.562;2023-11-19T02:02:30;0.20;;;0.20;;
27999;SDS011;15328;50.860;10.562;2023-11-19T02:07:31;0.20;;;0.20;;
27999;SDS011;15328;50.860;10.562;2023-11-19T02:12:33;0.40;;;0.30;;
27999;SDS011;15328;50.860;10.562;2023-11-19T02:17:36;0.20;;;0.20;;
27999;SDS011;15328;50.860;10.562;2023-11-19T02:22:40;0.25;;;0.25;;
27999;SDS011;15328;50.860;10.562;2023-11-19T02:27:59;0.30;;;0.30;;
27999;SDS011;15328;50.860;10.562;2023-11-19T02:33:01;0.30;;;0.30;;
27999;SDS011;15328;50.860;10.562;2023-11-19T02:38:05;0.30;;;0.30;;
27999;SDS011;15328;50.860;10.562;2023-11-19T02:43:06;0.20;;;0.20;;
27999;SDS011;15328;50.860;10.562;2023-11-19T02:48:08;0.73;;;0.20;;
27999;SDS011;15328;50.860;10.562;2023-11-19T02:53:09;0.20;;;0.20;;
27999;SDS011;15328;50.860;10.562;2023-11-19T02:58:10;0.30;;;0.30;;
27999;SDS011;15328;50.860;10.562;2023-11-19T03:03:20;0.15;;;0.15;;
27999;SDS011;15328;50.860;10.562;2023-11-19T03:08:23;0.52;;;0.30;;
27999;SDS011;15328;50.860;10.562;2023-11-19T03:13:23;0.80;;;0.57;;
27999;SDS011;15328;50.860;10.562;2023-11-19T03:18:23;0.70;;;0.40;;
27999;SDS011;15328;50.860;10.562;2023-11-19T03:23:24;0.20;;;0.20;;
27999;SDS011;15328;50.860;10.562;2023-11-19T03:28:28;0.25;;;0.25;;
27999;SDS011;15328;50.860;10.562;2023-11-19T03:33:28;0.43;;;0.30;;
27999;SDS011;15328;50.860;10.562;2023-11-19T03:38:28;0.33;;;0.33;;
27999;SDS011;15328;50.860;10.562;2023-11-19T03:43:30;0.20;;;0.20;;
27999;SDS011;15328;50.860;10.562;2023-11-19T03:48:31;0.20;;;0.20;;
27999;SDS011;15328;50.860;10.562;2023-11-19T03:53:31;0.40;;;0.30;;
27999;SDS011;15328;50.860;10.562;2023-11-19T03:58:32;0.20;;;0.20;;
27999;SDS011;15328;50.860;10.562;2023-11-19T04:03:32;0.80;;;0.80;;
27999;SDS011;15328;50.860;10.562;2023-11-19T04:08:33;0.30;;;0.30;;
27999;SDS011;15328;50.860;10.562;2023-11-19T04:13:33;0.38;;;0.20;;
27999;SDS011;15328;50.860;10.562;2023-11-19T04:18:34;0.28;;;0.28;;
27999;SDS011;15328;50.860;10.562;2023-11-19T04:23:34;0.30;;;0.30;;
27999;SDS011;15328;50.860;10.562;2023-11-19T04:28:35;0.30;;;0.30;;
27999;SDS011;15328;50.860;10.562;2023-11-19T04:33:35;0.35;;;0.20;;
27999;SDS011;15328;50.860;10.562;2023-11-19T04:38:35;0.30;;;0.30;;
27999;SDS011;15328;50.860;10.562;2023-11-19T04:43:38;0.30;;;0.30;;
27999;SDS011;15328;50.860;10.562;2023-11-19T04:48:38;0.40;;;0.30;;
27999;SDS011;15328;50.860;10.562;2023-11-19T04:53:39;0.37;;;0.30;;
27999;SDS011;15328;50.860;10.562;2023-11-19T04:58:39;0.50;;;0.30;;
27999;SDS011;15328;50.860;10.562;2023-11-19T05:03:39;1.10;;;0.80;;
27999;SDS011;15328;50.860;10.562;2023-11-19T05:08:40;1.45;;;0.98;;
27999;SDS011;15328;50.860;10.562;2023-11-19T05:13:40;0.50;;;0.40;;
27999;SDS011;15328;50.860;10.562;2023-11-19T05:18:41;0.90;;;0.80;;
27999;SDS011;15328;50.860;10.562;2023-11-19T05:23:42;0.50;;;0.50;;
27999;SDS011;15328;50.860;10.562;2023-11-19T05:28:42;0.60;;;0.50;;
27999;SDS011;15328;50.860;10.562;2023-11-19T05:33:42;1.23;;;0.60;;
27999;SDS011;15328;50.860;10.562;2023-11-19T05:38:43;0.50;;;0.50;;
27999;SDS011;15328;50.860;10.562;2023-11-19T05:43:44;0.50;;;0.50;;
27999;SDS011;15328;50.860;10.562;2023-11-19T05:48:45;1.20;;;0.70;;
27999;SDS011;15328;50.860;10.562;2023-11-19T05:53:46;1.10;;;0.70;;
27999;SDS011;15328;50.860;10.562;2023-11-19T05:58:47;1.63;;;1.15;;
27999;SDS011;15328;50.860;10.562;2023-11-19T06:03:49;0.82;;;0.65;;
27999;SDS011;15328;50.860;10.562;2023-11-19T06:08:50;0.85;;;0.65;;
27999;SDS011;15328;50.860;10.562;2023-11-19T06:13:50;0.98;;;0.75;;
27999;SDS011;15328;50.860;10.562;2023-11-19T06:18:51;0.88;;;0.70;;
27999;SDS011;15328;50.860;10.562;2023-11-19T06:23:51;0.90;;;0.70;;
27999;SDS011;15328;50.860;10.562;2023-11-19T06:28:53;2.92;;;1.30;;
27999;SDS011;15328;50.860;10.562;2023-11-19T06:33:54;4.72;;;3.63;;
27999;SDS011;15328;50.860;10.562;2023-11-19T06:38:54;3.23;;;1.00;;
27999;SDS011;15328;50.860;10.562;2023-11-19T06:43:55;1.40;;;0.95;;
27999;SDS011;15328;50.860;10.562;2023-11-19T06:48:55;1.60;;;1.00;;
27999;SDS011;15328;50.860;10.562;2023-11-19T06:53:57;1.88;;;1.00;;
27999;SDS011;15328;50.860;10.562;2023-11-19T06:58:57;1.70;;;0.98;;
27999;SDS011;15328;50.860;10.562;2023-11-19T07:03:58;1.35;;;0.80;;
27999;SDS011;15328;50.860;10.562;2023-11-19T07:08:58;2.10;;;0.80;;
27999;SDS011;15328;50.860;10.562;2023-11-19T07:13:59;3.47;;;0.93;;
27999;SDS011;15328;50.860;10.562;2023-11-19T07:19:01;3.50;;;1.00;;
27999;SDS011;15328;50.860;10.562;2023-11-19T07:24:02;3.45;;;1.02;;
27999;SDS011;15328;50.860;10.562;2023-11-19T07:29:02;2.53;;;0.98;;
27999;SDS011;15328;50.860;10.562;2023-11-19T07:34:03;2.28;;;1.00;;
27999;SDS011;15328;50.860;10.562;2023-11-19T07:39:05;3.13;;;0.85;;
27999;SDS011;15328;50.860;10.562;2023-11-19T07:44:05;3.58;;;0.80;;
27999;SDS011;15328;50.860;10.562;2023-11-19T07:49:06;1.98;;;0.60;;
27999;SDS011;15328;50.860;10.562;2023-11-19T07:54:07;2.90;;;0.60;;
27999;SDS011;15328;50.860;10.562;2023-11-19T07:59:08;1.20;;;0.63;;
27999;SDS011;15328;50.860;10.562;2023-11-19T08:04:08;0.60;;;0.50;;
27999;SDS011;15328;50.860;10.562;2023-11-19T08:09:09;3.17;;;1.05;;
27999;SDS011;15328;50.860;10.562;2023-11-19T08:14:13;3.53;;;0.98;;
27999;SDS011;15328;50.860;10.562;2023-11-19T08:19:13;5.78;;;1.17;;
27999;SDS011;15328;50.860;10.562;2023-11-19T08:24:14;5.28;;;1.15;;
27999;SDS011;15328;50.860;10.562;2023-11-19T08:29:14;7.07;;;1.27;;
27999;SDS011;15328;50.860;10.562;2023-11-19T08:34:15;4.53;;;1.27;;
27999;SDS011;15328;50.860;10.562;2023-11-19T08:39:15;7.53;;;1.58;;
27999;SDS011;15328;50.860;10.562;2023-11-19T08:44:17;8.88;;;1.90;;
27999;SDS011;15328;50.860;10.562;2023-11-19T08:49:19;11.20;;;2.03;;
27999;SDS011;15328;50.860;10.562;2023-11-19T08:54:19;5.97;;;1.47;;
27999;SDS011;15328;50.860;10.562;2023-11-19T08:59:21;9.10;;;1.90;;
27999;SDS011;15328;50.860;10.562;2023-11-19T09:04:21;5.45;;;1.27;;
27999;SDS011;15328;50.860;10.562;2023-11-19T09:09:25;10.60;;;1.92;;
27999;SDS011;15328;50.860;10.562;2023-11-19T09:14:25;9.80;;;1.70;;
27999;SDS011;15328;50.860;10.562;2023-11-19T09:19:26;9.95;;;1.98;;
27999;SDS011;15328;50.860;10.562;2023-11-19T09:24:26;7.90;;;1.63;;
27999;SDS011;15328;50.860;10.562;2023-11-19T09:29:27;5.87;;;1.60;;
27999;SDS011;15328;50.860;10.562;2023-11-19T09:34:27;11.43;;;2.07;;
27999;SDS011;15328;50.860;10.562;2023-11-19T09:39:28;8.57;;;1.63;;
27999;SDS011;15328;50.860;10.562;2023-11-19T09:44:28;7.53;;;1.70;;
27999;SDS011;15328;50.860;10.562;2023-11-19T09:49:29;7.97;;;1.63;;
27999;SDS011;15328;50.860;10.562;2023-11-19T09:54:30;9.38;;;1.52;;
27999;SDS011;15328;50.860;10.562;2023-11-19T09:59:31;7.97;;;1.63;;
27999;SDS011;15328;50.860;10.562;2023-11-19T10:04:33;8.43;;;2.15;;
27999;SDS011;15328;50.860;10.562;2023-11-19T10:09:35;8.40;;;1.70;;
27999;SDS011;15328;50.860;10.562;2023-11-19T10:14:36;7.78;;;1.60;;
27999;SDS011;15328;50.860;10.562;2023-11-19T10:19:39;7.78;;;1.75;;
27999;SDS011;15328;50.860;10.562;2023-11-19T10:24:41;7.82;;;1.42;;
27999;SDS011;15328;50.860;10.562;2023-11-19T10:29:48;9.02;;;1.73;;
27999;SDS011;15328;50.860;10.562;2023-11-19T10:34:48;9.75;;;1.50;;
27999;SDS011;15328;50.860;10.562;2023-11-19T10:39:52;5.80;;;1.50;;
27999;SDS011;15328;50.860;10.562;2023-11-19T10:44:56;4.07;;;1.27;;
27999;SDS011;15328;50.860;10.562;2023-11-19T10:49:56;9.55;;;1.98;;
27999;SDS011;15328;50.860;10.562;2023-11-19T10:54:57;8.25;;;2.05;;
27999;SDS011;15328;50.860;10.562;2023-11-19T11:00:02;12.35;;;1.90;;
27999;SDS011;15328;50.860;10.562;2023-11-19T11:10:12;6.47;;;1.52;;
27999;SDS011;15328;50.860;10.562;2023-11-19T11:15:13;8.85;;;2.10;;
27999;SDS011;15328;50.860;10.562;2023-11-19T11:20:15;10.02;;;1.52;;
27999;SDS011;15328;50.860;10.562;2023-11-19T11:25:22;12.57;;;1.67;;
27999;SDS011;15328;50.860;10.562;2023-11-19T11:30:46;9.90;;;2.20;;
27999;SDS011;15328;50.860;10.562;2023-11-19T11:36:18;8.30;;;1.45;;
27999;SDS011;15328;50.860;10.562;2023-11-19T11:41:21;7.63;;;1.48;;
27999;SDS011;15328;50.860;10.562;2023-11-19T11:46:56;7.93;;;1.70;;
27999;SDS011;15328;50.860;10.562;2023-11-19T11:51:58;9.27;;;2.03;;
27999;SDS011;15328;50.860;10.562;2023-11-19T11:57:03;13.90;;;2.30;;
27999;SDS011;15328;50.860;10.562;2023-11-19T12:02:11;13.05;;;2.35;;
27999;SDS011;15328;50.860;10.562;2023-11-19T12:12:22;11.60;;;2.00;;
27999;SDS011;15328;50.860;10.562;2023-11-19T12:22:33;11.23;;;2.22;;
27999;SDS011;15328;50.860;10.562;2023-11-19T12:27:41;9.52;;;2.00;;
27999;SDS011;15328;50.860;10.562;2023-11-19T12:32:42;8.43;;;1.90;;
27999;SDS011;15328;50.860;10.562;2023-11-19T12:37:49;11.18;;;2.22;;
27999;SDS011;15328;50.860;10.562;2023-11-19T12:42:52;12.23;;;1.75;;
27999;SDS011;15328;50.860;10.562;2023-11-19T12:48:06;11.18;;;2.33;;
27999;SDS011;15328;50.860;10.562;2023-11-19T12:53:08;10.25;;;2.20;;
27999;SDS011;15328;50.860;10.562;2023-11-19T12:58:08;13.73;;;2.28;;
27999;SDS011;15328;50.860;10.562;2023-11-19T13:03:09;11.98;;;2.63;;
27999;SDS011;15328;50.860;10.562;2023-11-19T13:08:09;10.40;;;2.30;;
27999;SDS011;15328;50.860;10.562;2023-11-19T13:13:10;9.70;;;1.92;;
27999;SDS011;15328;50.860;10.562;2023-11-19T13:18:10;10.53;;;2.07;;
27999;SDS011;15328;50.860;10.562;2023-11-19T13:23:11;9.18;;;1.88;;
27999;SDS011;15328;50.860;10.562;2023-11-19T13:28:11;10.15;;;1.80;;
27999;SDS011;15328;50.860;10.562;2023-11-19T13:33:12;14.57;;;2.70;;
27999;SDS011;15328;50.860;10.562;2023-11-19T13:38:13;7.80;;;1.70;;
27999;SDS011;15328;50.860;10.562;2023-11-19T13:43:13;8.50;;;1.48;;
27999;SDS011;15328;50.860;10.562;2023-11-19T13:48:13;7.93;;;1.70;;
27999;SDS011;15328;50.860;10.562;2023-11-19T13:53:14;6.40;;;1.53;;
27999;SDS011;15328;50.860;10.562;2023-11-19T13:58:14;5.30;;;1.30;;
27999;SDS011;15328;50.860;10.562;2023-11-19T14:03:15;10.82;;;2.10;;
27999;SDS011;15328;50.860;10.562;2023-11-19T14:08:16;8.57;;;1.93;;
27999;SDS011;15328;50.860;10.562;2023-11-19T14:13:16;10.07;;;2.53;;
27999;SDS011;15328;50.860;10.562;2023-11-19T14:18:17;16.27;;;2.97;;
27999;SDS011;15328;50.860;10.562;2023-11-19T14:23:18;8.45;;;1.92;;
27999;SDS011;15328;50.860;10.562;2023-11-19T14:28:18;6.37;;;1.70;;
27999;SDS011;15328;50.860;10.562;2023-11-19T14:33:19;13.60;;;2.35;;
27999;SDS011;15328;50.860;10.562;2023-11-19T14:38:19;6.43;;;1.40;;
27999;SDS011;15328;50.860;10.562;2023-11-19T14:43:20;8.65;;;1.98;;
27999;SDS011;15328;50.860;10.562;2023-11-19T14:48:20;7.57;;;1.70;;
27999;SDS011;15328;50.860;10.562;2023-11-19T14:53:21;7.10;;;1.50;;
27999;SDS011;15328;50.860;10.562;2023-11-19T14:58:22;14.60;;;2.58;;
27999;SDS011;15328;50.860;10.562;2023-11-19T15:03:22;9.00;;;1.80;;
27999;SDS011;15328;50.860;10.562;2023-11-19T15:08:23;11.55;;;1.90;;
27999;SDS011;15328;50.860;10.562;2023-11-19T15:13:23;8.05;;;1.80;;
27999;SDS011;15328;50.860;10.562;2023-11-19T15:18:24;11.80;;;1.85;;
27999;SDS011;15328;50.860;10.562;2023-11-19T15:23:24;7.93;;;1.73;;
27999;SDS011;15328;50.860;10.562;2023-11-19T15:28:25;5.90;;;1.60;;
27999;SDS011;15328;50.860;10.562;2023-11-19T15:33:25;6.27;;;1.33;;
27999;SDS011;15328;50.860;10.562;2023-11-19T15:38:25;7.23;;;1.23;;
27999;SDS011;15328;50.860;10.562;2023-11-19T15:43:26;5.67;;;1.40;;
27999;SDS011;15328;50.860;10.562;2023-11-19T15:48:26;8.93;;;1.50;;
27999;SDS011;15328;50.860;10.562;2023-11-19T15:53:26;7.75;;;1.38;;
27999;SDS011;15328;50.860;10.562;2023-11-19T15:58:27;8.23;;;1.58;;
27999;SDS011;15328;50.860;10.562;2023-11-19T16:03:27;8.57;;;1.70;;
27999;SDS011;15328;50.860;10.562;2023-11-19T16:08:30;9.68;;;1.70;;
27999;SDS011;15328;50.860;10.562;2023-11-19T16:13:30;10.07;;;2.10;;
27999;SDS011;15328;50.860;10.562;2023-11-19T16:18:30;9.88;;;2.05;;
27999;SDS011;15328;50.860;10.562;2023-11-19T16:23:32;11.20;;;2.55;;
27999;SDS011;15328;50.860;10.562;2023-11-19T16:28:32;9.93;;;1.95;;
27999;SDS011;15328;50.860;10.562;2023-11-19T16:33:35;14.18;;;2.00;;
27999;SDS011;15328;50.860;10.562;2023-11-19T16:38:35;9.53;;;2.20;;
27999;SDS011;15328;50.860;10.562;2023-11-19T16:43:35;9.48;;;2.10;;
27999;SDS011;15328;50.860;10.562;2023-11-19T16:48:36;11.75;;;1.85;;
27999;SDS011;15328;50.860;10.562;2023-11-19T16:53:36;10.63;;;1.93;;
27999;SDS011;15328;50.860;10.562;2023-11-19T16:58:36;6.03;;;1.47;;
27999;SDS011;15328;50.860;10.562;2023-11-19T17:03:37;12.70;;;2.42;;
27999;SDS011;15328;50.860;10.562;2023-11-19T17:08:37;8.10;;;1.98;;
27999;SDS011;15328;50.860;10.562;2023-11-19T17:13:38;6.70;;;1.70;;
27999;SDS011;15328;50.860;10.562;2023-11-19T17:18:38;9.67;;;1.73;;
27999;SDS011;15328;50.860;10.562;2023-11-19T17:23:39;6.63;;;1.35;;
27999;SDS011;15328;50.860;10.562;2023-11-19T17:28:40;9.07;;;1.70;;
27999;SDS011;15328;50.860;10.562;2023-11-19T17:33:41;7.25;;;1.45;;
27999;SDS011;15328;50.860;10.562;2023-11-19T17:38:41;4.38;;;1.35;;
27999;SDS011;15328;50.860;10.562;2023-11-19T17:43:41;8.30;;;1.70;;
27999;SDS011;15328;50.860;10.562;2023-11-19T17:48:42;5.07;;;1.30;;
27999;SDS011;15328;50.860;10.562;2023-11-19T17:53:45;6.50;;;1.90;;
27999;SDS011;15328;50.860;10.562;2023-11-19T17:58:46;6.40;;;2.15;;
27999;SDS011;15328;50.860;10.562;2023-11-19T18:03:47;5.65;;;1.52;;
27999;SDS011;15328;50.860;10.562;2023-11-19T18:08:47;7.87;;;1.67;;
27999;SDS011;15328;50.860;10.562;2023-11-19T18:13:48;9.98;;;1.67;;
27999;SDS011;15328;50.860;10.562;2023-11-19T18:18:49;6.57;;;1.42;;
27999;SDS011;15328;50.860;10.562;2023-11-19T18:23:51;7.82;;;1.60;;
27999;SDS011;15328;50.860;10.562;2023-11-19T18:28:51;9.70;;;1.75;;
27999;SDS011;15328;50.860;10.562;2023-11-19T18:33:53;6.90;;;1.23;;
27999;SDS011;15328;50.860;10.562;2023-11-19T18:38:53;10.35;;;2.03;;
27999;SDS011;15328;50.860;10.562;2023-11-19T18:43:54;9.93;;;2.03;;
27999;SDS011;15328;50.860;10.562;2023-11-19T18:48:54;10.60;;;2.03;;
27999;SDS011;15328;50.860;10.562;2023-11-19T18:53:55;8.85;;;1.50;;
27999;SDS011;15328;50.860;10.562;2023-11-19T18:58:56;9.82;;;2.17;;
27999;SDS011;15328;50.860;10.562;2023-11-19T19:03:56;11.63;;;2.33;;
27999;SDS011;15328;50.860;10.562;2023-11-19T19:08:59;14.73;;;2.00;;
27999;SDS011;15328;50.860;10.562;2023-11-19T19:14:00;7.90;;;2.10;;
27999;SDS011;15328;50.860;10.562;2023-11-19T19:19:00;7.25;;;1.70;;
27999;SDS011;15328;50.860;10.562;2023-11-19T19:24:00;5.63;;;1.33;;
27999;SDS011;15328;50.860;10.562;2023-11-19T19:29:03;12.32;;;2.00;;
27999;SDS011;15328;50.860;10.562;2023-11-19T19:34:04;9.15;;;1.70;;
27999;SDS011;15328;50.860;10.562;2023-11-19T19:39:04;8.75;;;1.60;;
27999;SDS011;15328;50.860;10.562;2023-11-19T19:44:06;6.90;;;1.73;;
27999;SDS011;15328;50.860;10.562;2023-11-19T19:49:08;9.82;;;2.03;;
27999;SDS011;15328;50.860;10.562;2023-11-19T19:54:09;13.57;;;2.10;;
27999;SDS011;15328;50.860;10.562;2023-11-19T19:59:10;17.55;;;2.60;;
27999;SDS011;15328;50.860;10.562;2023-11-19T20:04:12;12.60;;;2.60;;
27999;SDS011;15328;50.860;10.562;2023-11-19T20:09:12;12.75;;;2.05;;
27999;SDS011;15328;50.860;10.562;2023-11-19T20:14:16;11.57;;;2.00;;
27999;SDS011;15328;50.860;10.562;2023-11-19T20:19:17;11.00;;;2.22;;
27999;SDS011;15328;50.860;10.562;2023-11-19T20:24:17;9.20;;;1.85;;
27999;SDS011;15328;50.860;10.562;2023-11-19T20:29:17;10.80;;;2.17;;
27999;SDS011;15328;50.860;10.562;2023-11-19T20:34:18;13.80;;;2.35;;
27999;SDS011;15328;50.860;10.562;2023-11-19T20:39:18;11.20;;;1.92;;
27999;SDS011;15328;50.860;10.562;2023-11-19T20:44:19;10.97;;;1.90;;
27999;SDS011;15328;50.860;10.562;2023-11-19T20:49:19;7.30;;;1.83;;
27999;SDS011;15328;50.860;10.562;2023-11-19T20:54:22;12.25;;;2.28;;
27999;SDS011;15328;50.860;10.562;2023-11-19T20:59:23;12.80;;;2.00;;
27999;SDS011;15328;50.860;10.562;2023-11-19T21:04:23;10.10;;;1.90;;
27999;SDS011;15328;50.860;10.562;2023-11-19T21:09:24;14.27;;;2.20;;
27999;SDS011;15328;50.860;10.562;2023-11-19T21:14:25;12.18;;;1.95;;
27999;SDS011;15328;50.860;10.562;2023-11-19T21:19:26;12.05;;;2.10;;
27999;SDS011;15328;50.860;10.562;2023-11-19T21:24:26;13.00;;;2.45;;
27999;SDS011;15328;50.860;10.562;2023-11-19T21:29:28;10.07;;;2.30;;
27999;SDS011;15328;50.860;10.562;2023-11-19T21:34:28;13.43;;;2.30;;
27999;SDS011;15328;50.860;10.562;2023-11-19T21:39:29;14.98;;;2.45;;
27999;SDS011;15328;50.860;10.562;2023-11-19T21:44:29;8.03;;;1.70;;
27999;SDS011;15328;50.860;10.562;2023-11-19T21:49:29;13.20;;;2.77;;
27999;SDS011;15328;50.860;10.562;2023-11-19T21:54:30;11.73;;;1.88;;
27999;SDS011;15328;50.860;10.562;2023-11-19T21:59:30;11.17;;;1.90;;
27999;SDS011;15328;50.860;10.562;2023-11-19T22:04:33;9.90;;;2.03;;
27999;SDS011;15328;50.860;10.562;2023-11-19T22:09:34;11.55;;;2.05;;
27999;SDS011;15328;50.860;10.562;2023-11-19T22:14:34;10.63;;;2.30;;
27999;SDS011;15328;50.860;10.562;2023-11-19T22:19:35;10.40;;;1.77;;
27999;SDS011;15328;50.860;10.562;2023-11-19T22:24:35;11.80;;;2.17;;
27999;SDS011;15328;50.860;10.562;2023-11-19T22:29:36;11.83;;;1.90;;
27999;SDS011;15328;50.860;10.562;2023-11-19T22:34:36;11.75;;;1.90;;
27999;SDS011;15328;50.860;10.562;2023-11-19T22:39:37;11.73;;;1.57;;
27999;SDS011;15328;50.860;10.562;2023-11-19T22:44:37;10.80;;;1.85;;
27999;SDS011;15328;50.860;10.562;2023-11-19T22:49:40;12.50;;;2.53;;
27999;SDS011;15328;50.860;10.562;2023-11-19T22:54:41;10.95;;;2.40;;
27999;SDS011;15328;50.860;10.562;2023-11-19T22:59:42;9.63;;;1.95;;
27999;SDS011;15328;50.860;10.562;2023-11-19T23:04:43;8.15;;;1.58;;
27999;SDS011;15328;50.860;10.562;2023-11-19T23:09:43;11.23;;;2.00;;
27999;SDS011;15328;50.860;10.562;2023-11-19T23:14:44;11.30;;;2.10;;
27999;SDS011;15328;50.860;10.562;2023-11-19T23:19:45;12.53;;;2.47;;
27999;SDS011;15328;50.860;10.562;2023-11-19T23:24:45;6.73;;;1.97;;
27999;SDS011;15328;50.860;10.562;2023-11-19T23:29:45;10.10;;;1.93;;
27999;SDS011;15328;50.860;10.562;2023-11-19T23:34:46;11.35;;;1.92;;
27999;SDS011;15328;50.860;10.562;2023-11-19T23:39:46;8.00;;;1.53;;
27999;SDS011;15328;50.860;10.562;2023-11-19T23:44:47;5.15;;;1.35;;
27999;SDS011;15328;50.860;10.562;2023-11-19T23:49:47;5.00;;;1.20;;
27999;SDS011;15328;50.860;10.562;2023-11-19T23:54:48;6.93;;;1.40;;
27999;SDS011;15328;50.860;10.562;2023-11-19T23:59:51;4.05;;;1.23;;
